sensor_id;sensor_type;location;lat;lon;timestamp;temperature;humidity
67586;SHT31;55785;47.946;20.540;2023-05-07T00:00:03;12.51;87.43
67586;SHT31;55785;47.946;20.540;2023-05-07T00:02:29;12.33;87.73
67586;SHT31;55785;47.946;20.540;2023-05-07T00:04:55;12.31;87.85
67586;SHT31;55785;47.946;20.540;2023-05-07T00:07:20;12.28;87.84
67586;SHT31;55785;47.946;20.540;2023-05-07T00:09:45;12.34;87.81
67586;SHT31;55785;47.946;20.540;2023-05-07T00:12:11;12.35;87.58
67586;SHT31;55785;47.946;20.540;2023-05-07T00:14:36;12.40;87.33
67586;SHT31;55785;47.946;20.540;2023-05-07T00:17:01;12.42;86.97
67586;SHT31;55785;47.946;20.540;2023-05-07T00:19:27;12.40;86.91
67586;SHT31;55785;47.946;20.540;2023-05-07T00:21:52;12.38;86.86
67586;SHT31;55785;47.946;20.540;2023-05-07T00:24:18;12.28;85.98
67586;SHT31;55785;47.946;20.540;2023-05-07T00:26:43;12.21;86.12
67586;SHT31;55785;47.946;20.540;2023-05-07T00:29:08;12.14;86.11
67586;SHT31;55785;47.946;20.540;2023-05-07T00:31:33;12.08;86.36
67586;SHT31;55785;47.946;20.540;2023-05-07T00:33:59;12.04;86.73
67586;SHT31;55785;47.946;20.540;2023-05-07T00:36:24;12.00;87.01
67586;SHT31;55785;47.946;20.540;2023-05-07T00:38:49;11.94;86.90
67586;SHT31;55785;47.946;20.540;2023-05-07T00:41:15;11.96;87.00
67586;SHT31;55785;47.946;20.540;2023-05-07T00:43:40;11.93;87.06
67586;SHT31;55785;47.946;20.540;2023-05-07T00:46:06;11.90;87.08
67586;SHT31;55785;47.946;20.540;2023-05-07T00:48:31;11.89;87.08
67586;SHT31;55785;47.946;20.540;2023-05-07T00:50:57;11.82;87.07
67586;SHT31;55785;47.946;20.540;2023-05-07T00:53:22;11.85;87.15
67586;SHT31;55785;47.946;20.540;2023-05-07T00:55:48;11.79;87.49
67586;SHT31;55785;47.946;20.540;2023-05-07T00:58:13;11.87;87.46
67586;SHT31;55785;47.946;20.540;2023-05-07T01:00:39;11.87;87.55
67586;SHT31;55785;47.946;20.540;2023-05-07T01:03:04;11.93;87.55
67586;SHT31;55785;47.946;20.540;2023-05-07T01:05:30;11.91;87.49
67586;SHT31;55785;47.946;20.540;2023-05-07T01:07:56;11.90;87.38
67586;SHT31;55785;47.946;20.540;2023-05-07T01:10:22;11.83;87.39
67586;SHT31;55785;47.946;20.540;2023-05-07T01:12:48;11.83;87.51
67586;SHT31;55785;47.946;20.540;2023-05-07T01:15:15;11.80;87.60
67586;SHT31;55785;47.946;20.540;2023-05-07T01:17:42;11.77;87.75
67586;SHT31;55785;47.946;20.540;2023-05-07T01:20:08;11.76;87.64
67586;SHT31;55785;47.946;20.540;2023-05-07T01:22:35;11.69;87.45
67586;SHT31;55785;47.946;20.540;2023-05-07T01:25:01;11.66;87.40
67586;SHT31;55785;47.946;20.540;2023-05-07T01:27:27;11.63;87.65
67586;SHT31;55785;47.946;20.540;2023-05-07T01:29:53;11.61;87.93
67586;SHT31;55785;47.946;20.540;2023-05-07T01:35:05;11.45;88.09
67586;SHT31;55785;47.946;20.540;2023-05-07T01:37:32;11.46;88.09
67586;SHT31;55785;47.946;20.540;2023-05-07T01:39:58;11.42;88.17
67586;SHT31;55785;47.946;20.540;2023-05-07T01:42:24;11.40;88.22
67586;SHT31;55785;47.946;20.540;2023-05-07T01:44:50;11.40;88.18
67586;SHT31;55785;47.946;20.540;2023-05-07T01:47:16;11.32;88.31
67586;SHT31;55785;47.946;20.540;2023-05-07T01:49:42;11.28;88.67
67586;SHT31;55785;47.946;20.540;2023-05-07T01:52:08;11.27;88.74
67586;SHT31;55785;47.946;20.540;2023-05-07T01:54:33;11.32;88.93
67586;SHT31;55785;47.946;20.540;2023-05-07T01:56:59;11.39;88.72
67586;SHT31;55785;47.946;20.540;2023-05-07T01:59:24;11.34;88.33
67586;SHT31;55785;47.946;20.540;2023-05-07T02:01:49;11.28;88.33
67586;SHT31;55785;47.946;20.540;2023-05-07T02:04:15;11.25;88.41
67586;SHT31;55785;47.946;20.540;2023-05-07T02:06:40;11.18;88.58
67586;SHT31;55785;47.946;20.540;2023-05-07T02:09:05;11.12;88.74
67586;SHT31;55785;47.946;20.540;2023-05-07T02:11:31;11.12;88.78
67586;SHT31;55785;47.946;20.540;2023-05-07T02:13:56;11.11;88.79
67586;SHT31;55785;47.946;20.540;2023-05-07T02:16:21;11.11;88.76
67586;SHT31;55785;47.946;20.540;2023-05-07T02:18:47;11.07;88.76
67586;SHT31;55785;47.946;20.540;2023-05-07T02:21:12;11.12;88.76
67586;SHT31;55785;47.946;20.540;2023-05-07T02:23:37;11.15;88.80
67586;SHT31;55785;47.946;20.540;2023-05-07T02:26:03;11.08;88.72
67586;SHT31;55785;47.946;20.540;2023-05-07T02:28:29;11.03;88.67
67586;SHT31;55785;47.946;20.540;2023-05-07T02:30:54;11.03;88.64
67586;SHT31;55785;47.946;20.540;2023-05-07T02:33:19;10.96;88.75
67586;SHT31;55785;47.946;20.540;2023-05-07T02:35:45;10.96;88.78
67586;SHT31;55785;47.946;20.540;2023-05-07T02:38:10;11.01;88.72
67586;SHT31;55785;47.946;20.540;2023-05-07T02:40:36;11.04;88.80
67586;SHT31;55785;47.946;20.540;2023-05-07T02:43:01;11.01;88.70
67586;SHT31;55785;47.946;20.540;2023-05-07T02:45:27;10.96;89.25
67586;SHT31;55785;47.946;20.540;2023-05-07T02:47:52;10.90;89.04
67586;SHT31;55785;47.946;20.540;2023-05-07T02:50:17;10.91;88.98
67586;SHT31;55785;47.946;20.540;2023-05-07T02:55:08;10.98;88.98
67586;SHT31;55785;47.946;20.540;2023-05-07T02:57:33;10.96;88.66
67586;SHT31;55785;47.946;20.540;2023-05-07T03:07:14;10.98;88.55
67586;SHT31;55785;47.946;20.540;2023-05-07T03:09:40;10.97;88.55
67586;SHT31;55785;47.946;20.540;2023-05-07T03:12:05;10.90;88.87
67586;SHT31;55785;47.946;20.540;2023-05-07T03:14:31;10.80;88.67
67586;SHT31;55785;47.946;20.540;2023-05-07T03:16:56;10.84;88.88
67586;SHT31;55785;47.946;20.540;2023-05-07T03:19:21;10.85;88.86
67586;SHT31;55785;47.946;20.540;2023-05-07T03:21:46;10.77;89.40
67586;SHT31;55785;47.946;20.540;2023-05-07T03:24:12;10.81;89.12
67586;SHT31;55785;47.946;20.540;2023-05-07T03:26:37;10.90;88.95
67586;SHT31;55785;47.946;20.540;2023-05-07T03:29:03;10.87;88.65
67586;SHT31;55785;47.946;20.540;2023-05-07T03:31:28;10.77;88.71
67586;SHT31;55785;47.946;20.540;2023-05-07T03:33:55;10.85;88.84
67586;SHT31;55785;47.946;20.540;2023-05-07T03:36:21;10.88;88.89
67586;SHT31;55785;47.946;20.540;2023-05-07T03:38:48;10.94;88.75
67586;SHT31;55785;47.946;20.540;2023-05-07T03:41:13;11.00;88.78
67586;SHT31;55785;47.946;20.540;2023-05-07T03:43:39;11.01;88.76
67586;SHT31;55785;47.946;20.540;2023-05-07T03:46:04;11.01;88.97
67586;SHT31;55785;47.946;20.540;2023-05-07T03:48:29;11.10;88.96
67586;SHT31;55785;47.946;20.540;2023-05-07T03:50:56;11.11;89.10
67586;SHT31;55785;47.946;20.540;2023-05-07T03:53:22;11.22;88.64
67586;SHT31;55785;47.946;20.540;2023-05-07T03:55:47;11.21;88.57
67586;SHT31;55785;47.946;20.540;2023-05-07T03:58:13;11.32;88.72
67586;SHT31;55785;47.946;20.540;2023-05-07T04:00:38;11.31;88.76
67586;SHT31;55785;47.946;20.540;2023-05-07T04:03:04;11.39;88.48
67586;SHT31;55785;47.946;20.540;2023-05-07T04:05:30;11.48;88.27
67586;SHT31;55785;47.946;20.540;2023-05-07T04:07:57;11.55;88.13
67586;SHT31;55785;47.946;20.540;2023-05-07T04:10:22;11.58;88.05
67586;SHT31;55785;47.946;20.540;2023-05-07T04:12:48;11.59;87.94
67586;SHT31;55785;47.946;20.540;2023-05-07T04:15:13;11.52;88.35
67586;SHT31;55785;47.946;20.540;2023-05-07T04:17:38;11.62;88.35
67586;SHT31;55785;47.946;20.540;2023-05-07T04:20:04;11.61;88.33
67586;SHT31;55785;47.946;20.540;2023-05-07T04:22:30;11.61;88.34
67586;SHT31;55785;47.946;20.540;2023-05-07T04:24:55;11.69;88.37
67586;SHT31;55785;47.946;20.540;2023-05-07T04:27:20;11.77;88.22
67586;SHT31;55785;47.946;20.540;2023-05-07T04:29:46;11.85;88.33
67586;SHT31;55785;47.946;20.540;2023-05-07T04:32:11;11.93;88.32
67586;SHT31;55785;47.946;20.540;2023-05-07T04:34:36;11.91;88.01
67586;SHT31;55785;47.946;20.540;2023-05-07T04:37:02;11.98;88.03
67586;SHT31;55785;47.946;20.540;2023-05-07T04:39:27;12.03;87.91
67586;SHT31;55785;47.946;20.540;2023-05-07T04:41:52;12.18;87.72
67586;SHT31;55785;47.946;20.540;2023-05-07T04:44:18;12.24;87.72
67586;SHT31;55785;47.946;20.540;2023-05-07T04:46:43;12.33;87.54
67586;SHT31;55785;47.946;20.540;2023-05-07T04:49:08;12.41;87.88
67586;SHT31;55785;47.946;20.540;2023-05-07T04:51:34;12.40;87.58
67586;SHT31;55785;47.946;20.540;2023-05-07T04:53:59;12.44;87.74
67586;SHT31;55785;47.946;20.540;2023-05-07T04:56:27;12.49;87.60
67586;SHT31;55785;47.946;20.540;2023-05-07T04:58:53;12.61;87.85
67586;SHT31;55785;47.946;20.540;2023-05-07T05:01:18;12.75;87.87
67586;SHT31;55785;47.946;20.540;2023-05-07T05:03:43;12.81;87.49
67586;SHT31;55785;47.946;20.540;2023-05-07T05:06:09;12.95;87.59
67586;SHT31;55785;47.946;20.540;2023-05-07T05:08:35;13.06;87.43
67586;SHT31;55785;47.946;20.540;2023-05-07T05:11:01;13.14;87.24
67586;SHT31;55785;47.946;20.540;2023-05-07T05:13:27;13.27;87.64
67586;SHT31;55785;47.946;20.540;2023-05-07T05:15:52;13.40;87.17
67586;SHT31;55785;47.946;20.540;2023-05-07T05:18:18;13.50;86.49
67586;SHT31;55785;47.946;20.540;2023-05-07T05:20:43;13.57;86.09
67586;SHT31;55785;47.946;20.540;2023-05-07T05:23:08;13.61;85.92
67586;SHT31;55785;47.946;20.540;2023-05-07T05:25:34;13.64;85.85
67586;SHT31;55785;47.946;20.540;2023-05-07T05:27:59;13.70;86.06
67586;SHT31;55785;47.946;20.540;2023-05-07T05:30:24;13.71;85.76
67586;SHT31;55785;47.946;20.540;2023-05-07T05:32:50;13.78;85.40
67586;SHT31;55785;47.946;20.540;2023-05-07T05:35:15;13.83;85.35
67586;SHT31;55785;47.946;20.540;2023-05-07T05:37:40;13.91;85.10
67586;SHT31;55785;47.946;20.540;2023-05-07T05:40:06;13.99;85.15
67586;SHT31;55785;47.946;20.540;2023-05-07T05:42:31;14.08;85.24
67586;SHT31;55785;47.946;20.540;2023-05-07T05:44:57;14.13;85.44
67586;SHT31;55785;47.946;20.540;2023-05-07T05:47:22;14.18;84.96
67586;SHT31;55785;47.946;20.540;2023-05-07T05:49:47;14.13;84.53
67586;SHT31;55785;47.946;20.540;2023-05-07T05:52:13;14.20;85.16
67586;SHT31;55785;47.946;20.540;2023-05-07T05:54:38;14.33;86.22
67586;SHT31;55785;47.946;20.540;2023-05-07T05:57:04;14.47;86.56
67586;SHT31;55785;47.946;20.540;2023-05-07T05:59:29;14.60;86.79
67586;SHT31;55785;47.946;20.540;2023-05-07T06:01:55;14.66;86.35
67586;SHT31;55785;47.946;20.540;2023-05-07T06:04:20;14.78;86.71
67586;SHT31;55785;47.946;20.540;2023-05-07T06:06:45;14.83;85.94
67586;SHT31;55785;47.946;20.540;2023-05-07T06:09:11;14.89;86.31
67586;SHT31;55785;47.946;20.540;2023-05-07T06:11:36;15.02;86.21
67586;SHT31;55785;47.946;20.540;2023-05-07T06:14:01;15.02;85.62
67586;SHT31;55785;47.946;20.540;2023-05-07T06:16:27;15.01;85.58
67586;SHT31;55785;47.946;20.540;2023-05-07T06:18:52;15.12;85.46
67586;SHT31;55785;47.946;20.540;2023-05-07T06:21:17;15.05;85.23
67586;SHT31;55785;47.946;20.540;2023-05-07T06:23:43;15.12;85.46
67586;SHT31;55785;47.946;20.540;2023-05-07T06:26:08;15.22;85.85
67586;SHT31;55785;47.946;20.540;2023-05-07T06:28:33;15.26;85.31
67586;SHT31;55785;47.946;20.540;2023-05-07T06:31:17;15.43;84.83
67586;SHT31;55785;47.946;20.540;2023-05-07T06:33:44;15.62;85.18
67586;SHT31;55785;47.946;20.540;2023-05-07T06:36:09;15.73;84.91
67586;SHT31;55785;47.946;20.540;2023-05-07T06:38:35;15.59;83.91
67586;SHT31;55785;47.946;20.540;2023-05-07T06:41:00;15.82;83.59
67586;SHT31;55785;47.946;20.540;2023-05-07T06:43:25;15.79;83.51
67586;SHT31;55785;47.946;20.540;2023-05-07T06:45:51;16.00;84.26
67586;SHT31;55785;47.946;20.540;2023-05-07T06:48:16;16.14;82.68
67586;SHT31;55785;47.946;20.540;2023-05-07T06:50:41;16.31;82.62
67586;SHT31;55785;47.946;20.540;2023-05-07T06:53:07;16.32;82.17
67586;SHT31;55785;47.946;20.540;2023-05-07T06:55:32;16.32;83.12
67586;SHT31;55785;47.946;20.540;2023-05-07T06:57:57;16.20;81.44
67586;SHT31;55785;47.946;20.540;2023-05-07T07:00:23;16.20;81.89
67586;SHT31;55785;47.946;20.540;2023-05-07T07:02:48;16.28;82.96
67586;SHT31;55785;47.946;20.540;2023-05-07T07:05:14;16.45;82.00
67586;SHT31;55785;47.946;20.540;2023-05-07T07:07:39;16.55;80.32
67586;SHT31;55785;47.946;20.540;2023-05-07T07:10:05;16.69;79.89
67586;SHT31;55785;47.946;20.540;2023-05-07T07:12:30;16.76;80.75
67586;SHT31;55785;47.946;20.540;2023-05-07T07:14:55;16.73;80.13
67586;SHT31;55785;47.946;20.540;2023-05-07T07:17:21;16.70;81.73
67586;SHT31;55785;47.946;20.540;2023-05-07T07:19:46;16.82;78.33
67586;SHT31;55785;47.946;20.540;2023-05-07T07:22:11;17.16;79.13
67586;SHT31;55785;47.946;20.540;2023-05-07T07:24:37;17.26;80.26
67586;SHT31;55785;47.946;20.540;2023-05-07T07:27:02;17.38;78.54
67586;SHT31;55785;47.946;20.540;2023-05-07T07:29:27;17.41;77.33
67586;SHT31;55785;47.946;20.540;2023-05-07T07:31:53;17.47;76.67
67586;SHT31;55785;47.946;20.540;2023-05-07T07:34:18;17.64;76.75
67586;SHT31;55785;47.946;20.540;2023-05-07T07:36:43;17.48;75.98
67586;SHT31;55785;47.946;20.540;2023-05-07T07:39:09;17.26;76.68
67586;SHT31;55785;47.946;20.540;2023-05-07T07:41:34;17.27;78.00
67586;SHT31;55785;47.946;20.540;2023-05-07T07:43:59;17.23;76.27
67586;SHT31;55785;47.946;20.540;2023-05-07T07:46:25;17.44;77.57
67586;SHT31;55785;47.946;20.540;2023-05-07T07:48:50;17.93;75.87
67586;SHT31;55785;47.946;20.540;2023-05-07T07:51:15;18.10;76.13
67586;SHT31;55785;47.946;20.540;2023-05-07T07:53:41;17.99;74.38
67586;SHT31;55785;47.946;20.540;2023-05-07T07:56:06;18.17;78.80
67586;SHT31;55785;47.946;20.540;2023-05-07T07:58:31;18.50;77.68
67586;SHT31;55785;47.946;20.540;2023-05-07T08:00:57;18.58;74.56
67586;SHT31;55785;47.946;20.540;2023-05-07T08:03:22;18.61;74.68
67586;SHT31;55785;47.946;20.540;2023-05-07T08:05:47;18.55;78.08
67586;SHT31;55785;47.946;20.540;2023-05-07T08:08:13;18.45;74.27
67586;SHT31;55785;47.946;20.540;2023-05-07T08:10:38;18.58;77.23
67586;SHT31;55785;47.946;20.540;2023-05-07T08:13:03;18.50;72.16
67586;SHT31;55785;47.946;20.540;2023-05-07T08:15:29;18.61;73.43
67586;SHT31;55785;47.946;20.540;2023-05-07T08:17:54;18.82;72.21
67586;SHT31;55785;47.946;20.540;2023-05-07T08:20:20;19.06;73.28
67586;SHT31;55785;47.946;20.540;2023-05-07T08:22:45;18.98;70.25
67586;SHT31;55785;47.946;20.540;2023-05-07T08:25:10;18.85;71.72
67586;SHT31;55785;47.946;20.540;2023-05-07T08:27:36;18.89;76.10
67586;SHT31;55785;47.946;20.540;2023-05-07T08:30:02;18.96;75.75
67586;SHT31;55785;47.946;20.540;2023-05-07T08:32:27;19.40;72.76
67586;SHT31;55785;47.946;20.540;2023-05-07T08:34:52;19.56;71.84
67586;SHT31;55785;47.946;20.540;2023-05-07T08:37:18;19.70;71.03
67586;SHT31;55785;47.946;20.540;2023-05-07T08:39:43;19.60;71.83
67586;SHT31;55785;47.946;20.540;2023-05-07T08:42:09;19.36;73.60
67586;SHT31;55785;47.946;20.540;2023-05-07T08:44:38;19.20;73.93
67586;SHT31;55785;47.946;20.540;2023-05-07T08:47:06;18.85;73.52
67586;SHT31;55785;47.946;20.540;2023-05-07T08:49:33;19.01;75.62
67586;SHT31;55785;47.946;20.540;2023-05-07T08:51:59;19.05;75.36
67586;SHT31;55785;47.946;20.540;2023-05-07T08:54:24;19.08;71.09
67586;SHT31;55785;47.946;20.540;2023-05-07T08:56:50;19.37;74.27
67586;SHT31;55785;47.946;20.540;2023-05-07T08:59:15;19.75;74.82
67586;SHT31;55785;47.946;20.540;2023-05-07T09:01:41;19.91;72.45
67586;SHT31;55785;47.946;20.540;2023-05-07T09:04:06;19.77;70.38
67586;SHT31;55785;47.946;20.540;2023-05-07T09:06:33;19.82;71.92
67586;SHT31;55785;47.946;20.540;2023-05-07T09:08:58;19.91;70.64
67586;SHT31;55785;47.946;20.540;2023-05-07T09:11:24;19.98;71.78
67586;SHT31;55785;47.946;20.540;2023-05-07T09:13:57;20.11;72.38
67586;SHT31;55785;47.946;20.540;2023-05-07T09:16:23;20.04;71.30
67586;SHT31;55785;47.946;20.540;2023-05-07T09:18:51;20.21;72.46
67586;SHT31;55785;47.946;20.540;2023-05-07T09:21:18;20.24;71.94
67586;SHT31;55785;47.946;20.540;2023-05-07T09:23:44;20.32;71.51
67586;SHT31;55785;47.946;20.540;2023-05-07T09:26:09;20.39;69.76
67586;SHT31;55785;47.946;20.540;2023-05-07T09:28:34;20.25;67.07
67586;SHT31;55785;47.946;20.540;2023-05-07T09:31:00;20.19;66.98
67586;SHT31;55785;47.946;20.540;2023-05-07T09:33:28;20.24;68.00
67586;SHT31;55785;47.946;20.540;2023-05-07T09:35:53;20.42;67.31
67586;SHT31;55785;47.946;20.540;2023-05-07T09:38:21;20.53;70.22
67586;SHT31;55785;47.946;20.540;2023-05-07T09:40:46;20.33;68.24
67586;SHT31;55785;47.946;20.540;2023-05-07T09:43:13;20.07;68.00
67586;SHT31;55785;47.946;20.540;2023-05-07T09:45:38;20.12;70.81
67586;SHT31;55785;47.946;20.540;2023-05-07T09:48:05;20.08;67.87
67586;SHT31;55785;47.946;20.540;2023-05-07T09:50:45;20.32;67.01
67586;SHT31;55785;47.946;20.540;2023-05-07T09:53:14;20.90;67.76
67586;SHT31;55785;47.946;20.540;2023-05-07T09:55:39;21.01;66.40
67586;SHT31;55785;47.946;20.540;2023-05-07T09:58:06;21.10;66.55
67586;SHT31;55785;47.946;20.540;2023-05-07T10:00:31;20.87;66.96
67586;SHT31;55785;47.946;20.540;2023-05-07T10:02:58;20.76;67.56
67586;SHT31;55785;47.946;20.540;2023-05-07T10:05:23;20.63;64.68
67586;SHT31;55785;47.946;20.540;2023-05-07T10:07:50;20.56;65.55
67586;SHT31;55785;47.946;20.540;2023-05-07T10:10:17;20.66;66.43
67586;SHT31;55785;47.946;20.540;2023-05-07T10:12:42;20.81;66.56
67586;SHT31;55785;47.946;20.540;2023-05-07T10:15:09;21.03;66.83
67586;SHT31;55785;47.946;20.540;2023-05-07T10:17:36;21.20;63.46
67586;SHT31;55785;47.946;20.540;2023-05-07T10:20:01;21.51;63.47
67586;SHT31;55785;47.946;20.540;2023-05-07T10:22:27;21.42;61.96
67586;SHT31;55785;47.946;20.540;2023-05-07T10:24:55;21.51;62.01
67586;SHT31;55785;47.946;20.540;2023-05-07T10:27:22;21.37;63.15
67586;SHT31;55785;47.946;20.540;2023-05-07T10:30:18;21.27;61.82
67586;SHT31;55785;47.946;20.540;2023-05-07T10:32:47;21.46;64.14
67586;SHT31;55785;47.946;20.540;2023-05-07T10:35:17;21.65;64.84
67586;SHT31;55785;47.946;20.540;2023-05-07T10:37:44;21.49;64.95
67586;SHT31;55785;47.946;20.540;2023-05-07T10:40:11;21.35;66.74
67586;SHT31;55785;47.946;20.540;2023-05-07T10:42:37;20.91;65.82
67586;SHT31;55785;47.946;20.540;2023-05-07T10:45:15;20.50;66.00
67586;SHT31;55785;47.946;20.540;2023-05-07T10:48:05;20.32;65.94
67586;SHT31;55785;47.946;20.540;2023-05-07T10:50:31;20.28;65.31
67586;SHT31;55785;47.946;20.540;2023-05-07T10:55:46;20.70;64.94
67586;SHT31;55785;47.946;20.540;2023-05-07T11:00:46;20.84;64.17
67586;SHT31;55785;47.946;20.540;2023-05-07T11:03:11;21.15;67.53
67586;SHT31;55785;47.946;20.540;2023-05-07T11:05:37;21.07;65.74
67586;SHT31;55785;47.946;20.540;2023-05-07T11:08:04;20.97;67.82
67586;SHT31;55785;47.946;20.540;2023-05-07T11:10:53;20.90;64.58
67586;SHT31;55785;47.946;20.540;2023-05-07T11:13:42;20.86;64.98
67586;SHT31;55785;47.946;20.540;2023-05-07T11:16:22;20.81;65.94
67586;SHT31;55785;47.946;20.540;2023-05-07T11:18:49;20.63;64.39
67586;SHT31;55785;47.946;20.540;2023-05-07T11:23:56;20.57;68.70
67586;SHT31;55785;47.946;20.540;2023-05-07T11:26:22;20.65;65.14
67586;SHT31;55785;47.946;20.540;2023-05-07T11:28:48;20.69;65.81
67586;SHT31;55785;47.946;20.540;2023-05-07T11:31:13;20.66;63.30
67586;SHT31;55785;47.946;20.540;2023-05-07T11:33:39;20.62;64.66
67586;SHT31;55785;47.946;20.540;2023-05-07T11:36:05;20.50;66.26
67586;SHT31;55785;47.946;20.540;2023-05-07T11:38:30;20.66;65.50
67586;SHT31;55785;47.946;20.540;2023-05-07T11:40:59;20.75;66.53
67586;SHT31;55785;47.946;20.540;2023-05-07T11:43:25;20.75;65.19
67586;SHT31;55785;47.946;20.540;2023-05-07T11:45:50;20.48;65.43
67586;SHT31;55785;47.946;20.540;2023-05-07T11:48:16;20.33;67.51
67586;SHT31;55785;47.946;20.540;2023-05-07T11:51:14;20.08;67.07
67586;SHT31;55785;47.946;20.540;2023-05-07T11:53:43;19.95;66.29
67586;SHT31;55785;47.946;20.540;2023-05-07T11:56:10;19.92;67.32
67586;SHT31;55785;47.946;20.540;2023-05-07T11:58:37;20.04;67.86
67586;SHT31;55785;47.946;20.540;2023-05-07T12:01:02;20.05;63.67
67586;SHT31;55785;47.946;20.540;2023-05-07T12:03:28;20.18;64.65
67586;SHT31;55785;47.946;20.540;2023-05-07T12:05:54;20.33;64.90
67586;SHT31;55785;47.946;20.540;2023-05-07T12:08:20;20.38;64.80
67586;SHT31;55785;47.946;20.540;2023-05-07T12:10:46;20.26;64.93
67586;SHT31;55785;47.946;20.540;2023-05-07T12:13:22;20.19;64.81
67586;SHT31;55785;47.946;20.540;2023-05-07T12:15:52;20.17;66.02
67586;SHT31;55785;47.946;20.540;2023-05-07T12:18:17;20.17;67.91
67586;SHT31;55785;47.946;20.540;2023-05-07T12:20:43;20.12;68.82
67586;SHT31;55785;47.946;20.540;2023-05-07T12:23:09;20.02;67.15
67586;SHT31;55785;47.946;20.540;2023-05-07T12:25:36;20.07;70.09
67586;SHT31;55785;47.946;20.540;2023-05-07T12:28:02;20.00;73.03
67586;SHT31;55785;47.946;20.540;2023-05-07T12:30:28;19.84;69.86
67586;SHT31;55785;47.946;20.540;2023-05-07T12:32:54;20.02;74.38
67586;SHT31;55785;47.946;20.540;2023-05-07T12:35:29;20.19;78.21
67586;SHT31;55785;47.946;20.540;2023-05-07T12:37:55;19.95;75.00
67586;SHT31;55785;47.946;20.540;2023-05-07T12:40:21;19.91;73.34
67586;SHT31;55785;47.946;20.540;2023-05-07T12:42:46;20.09;77.07
67586;SHT31;55785;47.946;20.540;2023-05-07T12:45:17;20.05;75.41
67586;SHT31;55785;47.946;20.540;2023-05-07T12:47:46;19.90;74.96
67586;SHT31;55785;47.946;20.540;2023-05-07T12:50:15;19.85;74.77
67586;SHT31;55785;47.946;20.540;2023-05-07T12:52:45;19.95;76.92
67586;SHT31;55785;47.946;20.540;2023-05-07T12:55:14;19.92;75.77
67586;SHT31;55785;47.946;20.540;2023-05-07T12:57:45;20.01;75.07
67586;SHT31;55785;47.946;20.540;2023-05-07T13:00:13;19.90;72.99
67586;SHT31;55785;47.946;20.540;2023-05-07T13:02:39;19.81;73.61
67586;SHT31;55785;47.946;20.540;2023-05-07T13:05:05;19.74;73.55
67586;SHT31;55785;47.946;20.540;2023-05-07T13:07:31;19.66;75.86
67586;SHT31;55785;47.946;20.540;2023-05-07T13:09:56;19.50;77.28
67586;SHT31;55785;47.946;20.540;2023-05-07T13:12:22;19.39;76.86
67586;SHT31;55785;47.946;20.540;2023-05-07T13:14:47;19.29;77.04
67586;SHT31;55785;47.946;20.540;2023-05-07T13:17:12;19.23;77.76
67586;SHT31;55785;47.946;20.540;2023-05-07T13:19:38;19.19;77.90
67586;SHT31;55785;47.946;20.540;2023-05-07T13:22:03;19.22;77.90
67586;SHT31;55785;47.946;20.540;2023-05-07T13:24:29;19.74;76.77
67586;SHT31;55785;47.946;20.540;2023-05-07T13:26:54;20.11;75.83
67586;SHT31;55785;47.946;20.540;2023-05-07T13:29:19;20.24;77.49
67586;SHT31;55785;47.946;20.540;2023-05-07T13:31:45;19.97;78.03
67586;SHT31;55785;47.946;20.540;2023-05-07T13:34:10;19.64;76.51
67586;SHT31;55785;47.946;20.540;2023-05-07T13:36:35;19.37;76.33
67586;SHT31;55785;47.946;20.540;2023-05-07T13:39:01;19.33;75.25
67586;SHT31;55785;47.946;20.540;2023-05-07T13:41:26;19.32;76.26
67586;SHT31;55785;47.946;20.540;2023-05-07T13:43:51;19.19;76.62
67586;SHT31;55785;47.946;20.540;2023-05-07T13:46:17;19.18;77.15
67586;SHT31;55785;47.946;20.540;2023-05-07T13:48:42;19.05;76.46
67586;SHT31;55785;47.946;20.540;2023-05-07T13:51:07;18.91;77.41
67586;SHT31;55785;47.946;20.540;2023-05-07T13:53:33;18.91;77.97
67586;SHT31;55785;47.946;20.540;2023-05-07T13:55:58;18.72;77.47
67586;SHT31;55785;47.946;20.540;2023-05-07T13:58:23;18.57;75.03
67586;SHT31;55785;47.946;20.540;2023-05-07T14:00:49;18.50;75.38
67586;SHT31;55785;47.946;20.540;2023-05-07T14:03:14;18.33;73.52
67586;SHT31;55785;47.946;20.540;2023-05-07T14:05:39;18.00;76.37
67586;SHT31;55785;47.946;20.540;2023-05-07T14:08:05;17.64;78.08
67586;SHT31;55785;47.946;20.540;2023-05-07T14:10:30;17.27;78.46
67586;SHT31;55785;47.946;20.540;2023-05-07T14:12:55;16.76;78.72
67586;SHT31;55785;47.946;20.540;2023-05-07T14:15:21;16.41;78.12
67586;SHT31;55785;47.946;20.540;2023-05-07T14:17:46;16.03;77.88
67586;SHT31;55785;47.946;20.540;2023-05-07T14:20:12;15.83;78.93
67586;SHT31;55785;47.946;20.540;2023-05-07T14:22:37;15.60;77.39
67586;SHT31;55785;47.946;20.540;2023-05-07T14:25:03;15.40;77.98
67586;SHT31;55785;47.946;20.540;2023-05-07T14:27:28;15.28;78.44
67586;SHT31;55785;47.946;20.540;2023-05-07T14:29:54;15.19;78.61
67586;SHT31;55785;47.946;20.540;2023-05-07T14:32:20;15.26;78.60
67586;SHT31;55785;47.946;20.540;2023-05-07T14:34:46;15.21;78.42
67586;SHT31;55785;47.946;20.540;2023-05-07T14:37:11;15.36;78.21
67586;SHT31;55785;47.946;20.540;2023-05-07T14:39:37;15.46;78.34
67586;SHT31;55785;47.946;20.540;2023-05-07T14:42:02;15.55;78.50
67586;SHT31;55785;47.946;20.540;2023-05-07T14:44:27;15.34;76.97
67586;SHT31;55785;47.946;20.540;2023-05-07T14:46:53;15.16;77.77
67586;SHT31;55785;47.946;20.540;2023-05-07T14:49:18;15.11;78.05
67586;SHT31;55785;47.946;20.540;2023-05-07T14:51:45;14.85;78.70
67586;SHT31;55785;47.946;20.540;2023-05-07T14:54:11;14.70;79.46
67586;SHT31;55785;47.946;20.540;2023-05-07T14:56:36;14.59;79.62
67586;SHT31;55785;47.946;20.540;2023-05-07T14:59:02;14.49;80.52
67586;SHT31;55785;47.946;20.540;2023-05-07T15:01:28;14.34;80.29
67586;SHT31;55785;47.946;20.540;2023-05-07T15:03:53;14.30;80.24
67586;SHT31;55785;47.946;20.540;2023-05-07T15:06:18;14.34;80.46
67586;SHT31;55785;47.946;20.540;2023-05-07T15:08:44;14.34;81.01
67586;SHT31;55785;47.946;20.540;2023-05-07T15:11:09;14.44;79.88
67586;SHT31;55785;47.946;20.540;2023-05-07T15:13:34;14.37;79.98
67586;SHT31;55785;47.946;20.540;2023-05-07T15:16:00;14.30;80.37
67586;SHT31;55785;47.946;20.540;2023-05-07T15:18:25;14.16;80.46
67586;SHT31;55785;47.946;20.540;2023-05-07T15:20:50;13.99;80.86
67586;SHT31;55785;47.946;20.540;2023-05-07T15:23:16;13.91;80.75
67586;SHT31;55785;47.946;20.540;2023-05-07T15:25:41;13.86;81.23
67586;SHT31;55785;47.946;20.540;2023-05-07T15:28:07;13.75;81.53